sensor_id;sensor_type;location;lat;lon;timestamp;temperature;humidity
7654;DHT22;3869;48.406;10.774;2023-09-19T00:00:22;16.20;99.90
7654;DHT22;3869;48.406;10.774;2023-09-19T00:02:55;16.20;99.90
7654;DHT22;3869;48.406;10.774;2023-09-19T00:05:24;16.20;99.90
7654;DHT22;3869;48.406;10.774;2023-09-19T00:07:56;16.20;99.90
7654;DHT22;3869;48.406;10.774;2023-09-19T00:10:25;16.20;99.90
7654;DHT22;3869;48.406;10.774;2023-09-19T00:12:55;16.10;99.90
7654;DHT22;3869;48.406;10.774;2023-09-19T00:15:23;16.00;99.90
7654;DHT22;3869;48.406;10.774;2023-09-19T00:17:52;16.00;99.90
7654;DHT22;3869;48.406;10.774;2023-09-19T00:20:20;16.00;99.90
7654;DHT22;3869;48.406;10.774;2023-09-19T00:22:50;16.00;99.90
7654;DHT22;3869;48.406;10.774;2023-09-19T00:25:19;16.10;99.90
7654;DHT22;3869;48.406;10.774;2023-09-19T00:27:48;16.10;99.90
7654;DHT22;3869;48.406;10.774;2023-09-19T00:30:19;16.10;99.90
7654;DHT22;3869;48.406;10.774;2023-09-19T00:32:48;16.10;99.90
7654;DHT22;3869;48.406;10.774;2023-09-19T00:35:18;16.10;99.90
7654;DHT22;3869;48.406;10.774;2023-09-19T00:37:47;16.10;99.90
7654;DHT22;3869;48.406;10.774;2023-09-19T00:40:15;16.10;99.90
7654;DHT22;3869;48.406;10.774;2023-09-19T00:42:44;16.20;99.90
7654;DHT22;3869;48.406;10.774;2023-09-19T00:45:14;16.20;99.90
7654;DHT22;3869;48.406;10.774;2023-09-19T00:47:45;16.20;99.90
7654;DHT22;3869;48.406;10.774;2023-09-19T00:50:18;16.30;99.90
7654;DHT22;3869;48.406;10.774;2023-09-19T00:52:48;16.20;99.90
7654;DHT22;3869;48.406;10.774;2023-09-19T00:55:18;16.20;99.90
7654;DHT22;3869;48.406;10.774;2023-09-19T00:57:47;16.20;99.90
7654;DHT22;3869;48.406;10.774;2023-09-19T01:00:17;16.30;99.90
7654;DHT22;3869;48.406;10.774;2023-09-19T01:02:48;16.30;99.90
7654;DHT22;3869;48.406;10.774;2023-09-19T01:05:17;16.30;99.90
7654;DHT22;3869;48.406;10.774;2023-09-19T01:07:45;16.30;99.90
7654;DHT22;3869;48.406;10.774;2023-09-19T01:10:17;16.30;99.90
7654;DHT22;3869;48.406;10.774;2023-09-19T01:12:56;16.30;99.90
7654;DHT22;3869;48.406;10.774;2023-09-19T01:15:38;16.30;99.90
7654;DHT22;3869;48.406;10.774;2023-09-19T01:18:21;16.40;99.90
7654;DHT22;3869;48.406;10.774;2023-09-19T01:20:57;16.40;99.90
7654;DHT22;3869;48.406;10.774;2023-09-19T01:23:44;16.40;99.90
7654;DHT22;3869;48.406;10.774;2023-09-19T01:26:26;16.40;99.90
7654;DHT22;3869;48.406;10.774;2023-09-19T01:29:13;16.40;99.90
7654;DHT22;3869;48.406;10.774;2023-09-19T01:31:47;16.40;99.90
7654;DHT22;3869;48.406;10.774;2023-09-19T01:34:17;16.30;99.90
7654;DHT22;3869;48.406;10.774;2023-09-19T01:36:45;16.30;99.90
7654;DHT22;3869;48.406;10.774;2023-09-19T01:39:13;16.30;99.90
7654;DHT22;3869;48.406;10.774;2023-09-19T01:41:58;16.30;99.90
7654;DHT22;3869;48.406;10.774;2023-09-19T01:44:55;16.30;99.90
7654;DHT22;3869;48.406;10.774;2023-09-19T01:47:32;16.20;99.90
7654;DHT22;3869;48.406;10.774;2023-09-19T01:50:11;16.20;99.90
7654;DHT22;3869;48.406;10.774;2023-09-19T01:52:45;15.90;99.90
7654;DHT22;3869;48.406;10.774;2023-09-19T01:55:15;16.10;99.90
7654;DHT22;3869;48.406;10.774;2023-09-19T01:57:51;16.20;99.90
7654;DHT22;3869;48.406;10.774;2023-09-19T02:00:23;16.20;99.90
7654;DHT22;3869;48.406;10.774;2023-09-19T02:02:53;16.20;99.90
7654;DHT22;3869;48.406;10.774;2023-09-19T02:05:23;16.10;99.90
7654;DHT22;3869;48.406;10.774;2023-09-19T02:07:52;16.20;99.90
7654;DHT22;3869;48.406;10.774;2023-09-19T02:10:21;16.20;99.90
7654;DHT22;3869;48.406;10.774;2023-09-19T02:12:50;16.20;99.90
7654;DHT22;3869;48.406;10.774;2023-09-19T02:15:18;16.20;99.90
7654;DHT22;3869;48.406;10.774;2023-09-19T02:17:46;16.20;99.90
7654;DHT22;3869;48.406;10.774;2023-09-19T02:20:15;16.20;99.90
7654;DHT22;3869;48.406;10.774;2023-09-19T02:22:44;16.20;99.90
7654;DHT22;3869;48.406;10.774;2023-09-19T02:25:12;16.20;99.90
7654;DHT22;3869;48.406;10.774;2023-09-19T02:27:40;16.20;99.90
7654;DHT22;3869;48.406;10.774;2023-09-19T02:30:10;16.20;99.90
7654;DHT22;3869;48.406;10.774;2023-09-19T02:32:38;16.20;99.90
7654;DHT22;3869;48.406;10.774;2023-09-19T02:35:07;16.20;99.90
7654;DHT22;3869;48.406;10.774;2023-09-19T02:37:39;16.20;99.90
7654;DHT22;3869;48.406;10.774;2023-09-19T02:40:08;16.30;99.90
7654;DHT22;3869;48.406;10.774;2023-09-19T02:42:46;16.30;99.90
7654;DHT22;3869;48.406;10.774;2023-09-19T02:45:17;16.30;99.90
7654;DHT22;3869;48.406;10.774;2023-09-19T02:47:46;16.20;99.90
7654;DHT22;3869;48.406;10.774;2023-09-19T02:50:15;16.10;99.90
7654;DHT22;3869;48.406;10.774;2023-09-19T02:52:46;16.10;99.90
7654;DHT22;3869;48.406;10.774;2023-09-19T02:55:17;16.10;99.90
7654;DHT22;3869;48.406;10.774;2023-09-19T02:57:47;16.10;99.90
7654;DHT22;3869;48.406;10.774;2023-09-19T03:00:16;16.20;99.90
7654;DHT22;3869;48.406;10.774;2023-09-19T03:02:48;16.20;99.90
7654;DHT22;3869;48.406;10.774;2023-09-19T03:05:17;16.20;99.90
7654;DHT22;3869;48.406;10.774;2023-09-19T03:07:47;16.10;99.90
7654;DHT22;3869;48.406;10.774;2023-09-19T03:10:17;16.20;99.90
7654;DHT22;3869;48.406;10.774;2023-09-19T03:12:46;16.20;99.90
7654;DHT22;3869;48.406;10.774;2023-09-19T03:15:14;16.20;99.90
7654;DHT22;3869;48.406;10.774;2023-09-19T03:17:43;16.20;99.90
7654;DHT22;3869;48.406;10.774;2023-09-19T03:20:12;16.30;99.90
7654;DHT22;3869;48.406;10.774;2023-09-19T03:22:41;16.20;99.90
7654;DHT22;3869;48.406;10.774;2023-09-19T03:25:10;16.20;99.90
7654;DHT22;3869;48.406;10.774;2023-09-19T03:27:39;16.20;99.90
7654;DHT22;3869;48.406;10.774;2023-09-19T03:30:07;16.20;99.90
7654;DHT22;3869;48.406;10.774;2023-09-19T03:32:36;16.20;99.90
7654;DHT22;3869;48.406;10.774;2023-09-19T03:35:05;16.30;99.90
7654;DHT22;3869;48.406;10.774;2023-09-19T03:37:33;16.30;99.90
7654;DHT22;3869;48.406;10.774;2023-09-19T03:40:01;16.30;99.90
7654;DHT22;3869;48.406;10.774;2023-09-19T03:42:33;16.30;99.90
7654;DHT22;3869;48.406;10.774;2023-09-19T03:45:03;16.30;99.90
7654;DHT22;3869;48.406;10.774;2023-09-19T03:47:32;16.30;99.90
7654;DHT22;3869;48.406;10.774;2023-09-19T03:50:00;16.30;99.90
7654;DHT22;3869;48.406;10.774;2023-09-19T03:52:29;16.30;99.90
7654;DHT22;3869;48.406;10.774;2023-09-19T03:54:57;16.30;99.90
7654;DHT22;3869;48.406;10.774;2023-09-19T03:57:26;16.30;99.90
7654;DHT22;3869;48.406;10.774;2023-09-19T03:59:56;16.30;99.90
7654;DHT22;3869;48.406;10.774;2023-09-19T04:02:24;16.40;99.90
7654;DHT22;3869;48.406;10.774;2023-09-19T04:04:52;16.40;99.90
7654;DHT22;3869;48.406;10.774;2023-09-19T04:07:20;16.30;99.90
7654;DHT22;3869;48.406;10.774;2023-09-19T04:09:49;16.40;99.90
7654;DHT22;3869;48.406;10.774;2023-09-19T04:12:20;16.40;99.90
7654;DHT22;3869;48.406;10.774;2023-09-19T04:14:48;16.40;99.90
7654;DHT22;3869;48.406;10.774;2023-09-19T04:17:18;16.40;99.90
7654;DHT22;3869;48.406;10.774;2023-09-19T04:19:46;16.40;99.90
7654;DHT22;3869;48.406;10.774;2023-09-19T04:22:14;16.40;99.90
7654;DHT22;3869;48.406;10.774;2023-09-19T04:24:42;16.40;99.90
7654;DHT22;3869;48.406;10.774;2023-09-19T04:27:11;16.40;99.90
7654;DHT22;3869;48.406;10.774;2023-09-19T04:29:41;16.40;99.90
7654;DHT22;3869;48.406;10.774;2023-09-19T04:32:09;16.40;99.90
7654;DHT22;3869;48.406;10.774;2023-09-19T04:34:38;16.40;99.90
7654;DHT22;3869;48.406;10.774;2023-09-19T04:37:07;16.40;99.90
7654;DHT22;3869;48.406;10.774;2023-09-19T04:39:35;16.40;99.90
7654;DHT22;3869;48.406;10.774;2023-09-19T04:42:04;16.50;99.90
7654;DHT22;3869;48.406;10.774;2023-09-19T04:44:32;16.40;99.90
7654;DHT22;3869;48.406;10.774;2023-09-19T04:47:00;16.40;99.90
7654;DHT22;3869;48.406;10.774;2023-09-19T04:49:28;16.40;99.90
7654;DHT22;3869;48.406;10.774;2023-09-19T04:51:58;16.40;99.90
7654;DHT22;3869;48.406;10.774;2023-09-19T04:54:26;16.40;99.90
7654;DHT22;3869;48.406;10.774;2023-09-19T04:56:54;16.40;99.90
7654;DHT22;3869;48.406;10.774;2023-09-19T04:59:22;16.40;99.90
7654;DHT22;3869;48.406;10.774;2023-09-19T05:01:50;16.40;99.90
7654;DHT22;3869;48.406;10.774;2023-09-19T05:04:19;16.40;99.90
7654;DHT22;3869;48.406;10.774;2023-09-19T05:06:47;16.40;99.90
7654;DHT22;3869;48.406;10.774;2023-09-19T05:09:16;16.40;99.90
7654;DHT22;3869;48.406;10.774;2023-09-19T05:11:46;16.40;99.90
7654;DHT22;3869;48.406;10.774;2023-09-19T05:14:16;16.40;99.90
7654;DHT22;3869;48.406;10.774;2023-09-19T05:16:44;16.40;99.90
7654;DHT22;3869;48.406;10.774;2023-09-19T05:19:12;16.40;99.90
7654;DHT22;3869;48.406;10.774;2023-09-19T05:21:40;16.40;99.90
7654;DHT22;3869;48.406;10.774;2023-09-19T05:24:08;16.40;99.90
7654;DHT22;3869;48.406;10.774;2023-09-19T05:26:38;16.40;99.90
7654;DHT22;3869;48.406;10.774;2023-09-19T05:29:06;16.30;99.90
7654;DHT22;3869;48.406;10.774;2023-09-19T05:31:34;16.30;99.90
7654;DHT22;3869;48.406;10.774;2023-09-19T05:34:08;16.30;99.90
7654;DHT22;3869;48.406;10.774;2023-09-19T05:36:36;16.30;99.90
7654;DHT22;3869;48.406;10.774;2023-09-19T05:39:06;16.30;99.90
7654;DHT22;3869;48.406;10.774;2023-09-19T05:41:37;16.40;99.90
7654;DHT22;3869;48.406;10.774;2023-09-19T05:44:06;16.40;99.90
7654;DHT22;3869;48.406;10.774;2023-09-19T05:46:35;16.40;99.90
7654;DHT22;3869;48.406;10.774;2023-09-19T05:49:03;16.40;99.90
7654;DHT22;3869;48.406;10.774;2023-09-19T05:51:31;16.50;99.90
7654;DHT22;3869;48.406;10.774;2023-09-19T05:53:59;16.50;99.90
7654;DHT22;3869;48.406;10.774;2023-09-19T05:56:27;16.50;99.90
7654;DHT22;3869;48.406;10.774;2023-09-19T05:58:56;16.50;99.90
7654;DHT22;3869;48.406;10.774;2023-09-19T06:01:24;16.50;99.90
7654;DHT22;3869;48.406;10.774;2023-09-19T06:03:54;16.60;99.90
7654;DHT22;3869;48.406;10.774;2023-09-19T06:06:22;16.60;99.90
7654;DHT22;3869;48.406;10.774;2023-09-19T06:08:50;16.60;99.90
7654;DHT22;3869;48.406;10.774;2023-09-19T06:11:19;16.60;99.90
7654;DHT22;3869;48.406;10.774;2023-09-19T06:13:47;16.70;99.90
7654;DHT22;3869;48.406;10.774;2023-09-19T06:16:16;16.70;99.90
7654;DHT22;3869;48.406;10.774;2023-09-19T06:18:46;16.70;99.90
7654;DHT22;3869;48.406;10.774;2023-09-19T06:21:19;16.70;99.90
7654;DHT22;3869;48.406;10.774;2023-09-19T06:23:47;16.70;99.90
7654;DHT22;3869;48.406;10.774;2023-09-19T06:26:15;16.70;99.90
7654;DHT22;3869;48.406;10.774;2023-09-19T06:28:44;16.70;99.90
7654;DHT22;3869;48.406;10.774;2023-09-19T06:31:12;16.80;99.90
7654;DHT22;3869;48.406;10.774;2023-09-19T06:33:41;16.80;99.90
7654;DHT22;3869;48.406;10.774;2023-09-19T06:36:09;16.80;99.90
7654;DHT22;3869;48.406;10.774;2023-09-19T06:38:38;16.80;99.90
7654;DHT22;3869;48.406;10.774;2023-09-19T06:41:06;16.80;99.90
7654;DHT22;3869;48.406;10.774;2023-09-19T06:43:35;16.90;99.90
7654;DHT22;3869;48.406;10.774;2023-09-19T06:46:03;16.90;99.90
7654;DHT22;3869;48.406;10.774;2023-09-19T06:48:33;16.90;99.90
7654;DHT22;3869;48.406;10.774;2023-09-19T06:51:03;17.00;99.90
7654;DHT22;3869;48.406;10.774;2023-09-19T06:53:32;17.00;99.90
7654;DHT22;3869;48.406;10.774;2023-09-19T06:56:01;17.00;99.90
7654;DHT22;3869;48.406;10.774;2023-09-19T06:58:30;17.10;99.90
7654;DHT22;3869;48.406;10.774;2023-09-19T07:00:58;17.00;99.90
7654;DHT22;3869;48.406;10.774;2023-09-19T07:03:26;17.00;99.90
7654;DHT22;3869;48.406;10.774;2023-09-19T07:05:55;17.00;99.90
7654;DHT22;3869;48.406;10.774;2023-09-19T07:08:26;17.00;99.90
7654;DHT22;3869;48.406;10.774;2023-09-19T07:10:56;17.10;99.90
7654;DHT22;3869;48.406;10.774;2023-09-19T07:13:24;17.10;99.90
7654;DHT22;3869;48.406;10.774;2023-09-19T07:15:53;17.10;99.90
7654;DHT22;3869;48.406;10.774;2023-09-19T07:18:21;17.10;99.90
7654;DHT22;3869;48.406;10.774;2023-09-19T07:20:49;17.20;99.90
7654;DHT22;3869;48.406;10.774;2023-09-19T07:23:17;17.20;99.90
7654;DHT22;3869;48.406;10.774;2023-09-19T07:25:47;17.20;99.90
7654;DHT22;3869;48.406;10.774;2023-09-19T07:28:15;17.30;99.90
7654;DHT22;3869;48.406;10.774;2023-09-19T07:30:44;17.30;99.90
7654;DHT22;3869;48.406;10.774;2023-09-19T07:33:12;17.30;99.90
7654;DHT22;3869;48.406;10.774;2023-09-19T07:35:40;17.40;99.90
7654;DHT22;3869;48.406;10.774;2023-09-19T07:38:08;17.50;99.90
7654;DHT22;3869;48.406;10.774;2023-09-19T07:40:38;17.50;99.90
7654;DHT22;3869;48.406;10.774;2023-09-19T07:43:08;17.50;99.90
7654;DHT22;3869;48.406;10.774;2023-09-19T07:45:36;17.60;99.90
7654;DHT22;3869;48.406;10.774;2023-09-19T07:48:04;17.60;99.90
7654;DHT22;3869;48.406;10.774;2023-09-19T07:50:40;17.70;99.90
7654;DHT22;3869;48.406;10.774;2023-09-19T07:53:10;17.80;99.90
7654;DHT22;3869;48.406;10.774;2023-09-19T07:55:40;17.80;99.90
7654;DHT22;3869;48.406;10.774;2023-09-19T07:58:10;17.80;99.90
7654;DHT22;3869;48.406;10.774;2023-09-19T08:00:40;17.90;99.90
7654;DHT22;3869;48.406;10.774;2023-09-19T08:03:08;18.00;99.90
7654;DHT22;3869;48.406;10.774;2023-09-19T08:05:44;18.10;99.90
7654;DHT22;3869;48.406;10.774;2023-09-19T08:08:13;18.20;99.90
7654;DHT22;3869;48.406;10.774;2023-09-19T08:10:42;18.30;99.90
7654;DHT22;3869;48.406;10.774;2023-09-19T08:13:14;18.30;99.90
7654;DHT22;3869;48.406;10.774;2023-09-19T08:15:44;18.30;99.90
7654;DHT22;3869;48.406;10.774;2023-09-19T08:18:13;18.30;99.90
7654;DHT22;3869;48.406;10.774;2023-09-19T08:20:41;18.30;99.90
7654;DHT22;3869;48.406;10.774;2023-09-19T08:23:13;18.30;99.90
7654;DHT22;3869;48.406;10.774;2023-09-19T08:25:41;18.30;99.90
7654;DHT22;3869;48.406;10.774;2023-09-19T08:28:09;18.40;99.90
7654;DHT22;3869;48.406;10.774;2023-09-19T08:30:40;18.40;99.90
7654;DHT22;3869;48.406;10.774;2023-09-19T08:33:08;18.40;99.90
7654;DHT22;3869;48.406;10.774;2023-09-19T08:35:37;18.50;99.90
7654;DHT22;3869;48.406;10.774;2023-09-19T08:38:06;18.50;99.90
7654;DHT22;3869;48.406;10.774;2023-09-19T08:40:37;18.50;99.90
7654;DHT22;3869;48.406;10.774;2023-09-19T08:43:07;18.60;99.90
7654;DHT22;3869;48.406;10.774;2023-09-19T08:45:35;18.50;99.90
7654;DHT22;3869;48.406;10.774;2023-09-19T08:48:16;18.50;99.90
7654;DHT22;3869;48.406;10.774;2023-09-19T08:50:49;18.60;99.90
7654;DHT22;3869;48.406;10.774;2023-09-19T08:53:27;18.70;99.90
7654;DHT22;3869;48.406;10.774;2023-09-19T08:55:59;18.70;99.90
7654;DHT22;3869;48.406;10.774;2023-09-19T08:58:33;18.80;99.90
7654;DHT22;3869;48.406;10.774;2023-09-19T09:01:03;18.90;99.90
7654;DHT22;3869;48.406;10.774;2023-09-19T09:03:35;19.00;99.90
7654;DHT22;3869;48.406;10.774;2023-09-19T09:06:07;19.00;99.90
7654;DHT22;3869;48.406;10.774;2023-09-19T09:08:37;19.00;99.90
7654;DHT22;3869;48.406;10.774;2023-09-19T09:11:06;19.10;99.90
7654;DHT22;3869;48.406;10.774;2023-09-19T09:13:36;19.10;99.90
7654;DHT22;3869;48.406;10.774;2023-09-19T09:16:04;19.00;99.90
7654;DHT22;3869;48.406;10.774;2023-09-19T09:18:32;19.00;99.90
7654;DHT22;3869;48.406;10.774;2023-09-19T09:21:02;19.00;99.90
7654;DHT22;3869;48.406;10.774;2023-09-19T09:23:31;19.00;99.90
7654;DHT22;3869;48.406;10.774;2023-09-19T09:25:59;19.10;99.90
7654;DHT22;3869;48.406;10.774;2023-09-19T09:28:30;19.20;99.90
7654;DHT22;3869;48.406;10.774;2023-09-19T09:31:00;19.20;99.90
7654;DHT22;3869;48.406;10.774;2023-09-19T09:33:29;19.40;99.90
7654;DHT22;3869;48.406;10.774;2023-09-19T09:35:59;19.40;99.90
7654;DHT22;3869;48.406;10.774;2023-09-19T09:38:43;19.40;99.90
7654;DHT22;3869;48.406;10.774;2023-09-19T09:41:12;19.40;99.90
7654;DHT22;3869;48.406;10.774;2023-09-19T09:43:43;19.40;99.90
7654;DHT22;3869;48.406;10.774;2023-09-19T09:46:14;19.40;99.90
7654;DHT22;3869;48.406;10.774;2023-09-19T09:49:01;19.40;99.90
7654;DHT22;3869;48.406;10.774;2023-09-19T09:51:44;19.40;99.90
7654;DHT22;3869;48.406;10.774;2023-09-19T09:54:17;19.40;99.90
7654;DHT22;3869;48.406;10.774;2023-09-19T09:56:54;19.50;99.90
7654;DHT22;3869;48.406;10.774;2023-09-19T09:59:47;19.50;99.90
7654;DHT22;3869;48.406;10.774;2023-09-19T10:02:17;19.60;99.90
7654;DHT22;3869;48.406;10.774;2023-09-19T10:04:52;19.70;99.90
7654;DHT22;3869;48.406;10.774;2023-09-19T10:07:27;19.70;99.90
7654;DHT22;3869;48.406;10.774;2023-09-19T10:10:01;19.80;99.90
7654;DHT22;3869;48.406;10.774;2023-09-19T10:12:43;19.80;99.90
7654;DHT22;3869;48.406;10.774;2023-09-19T10:15:12;19.90;99.90
7654;DHT22;3869;48.406;10.774;2023-09-19T10:17:43;19.90;99.90
7654;DHT22;3869;48.406;10.774;2023-09-19T10:20:13;19.90;99.90
7654;DHT22;3869;48.406;10.774;2023-09-19T10:23:00;20.00;99.90
7654;DHT22;3869;48.406;10.774;2023-09-19T10:25:30;20.10;99.90
7654;DHT22;3869;48.406;10.774;2023-09-19T10:28:00;20.10;99.90
7654;DHT22;3869;48.406;10.774;2023-09-19T10:30:31;20.10;99.90
7654;DHT22;3869;48.406;10.774;2023-09-19T10:33:03;20.10;99.90
7654;DHT22;3869;48.406;10.774;2023-09-19T10:35:33;20.00;99.90
7654;DHT22;3869;48.406;10.774;2023-09-19T10:38:01;20.10;99.90
7654;DHT22;3869;48.406;10.774;2023-09-19T10:40:35;20.20;99.90
7654;DHT22;3869;48.406;10.774;2023-09-19T10:43:04;20.20;99.90
7654;DHT22;3869;48.406;10.774;2023-09-19T10:45:34;20.20;99.90
7654;DHT22;3869;48.406;10.774;2023-09-19T10:48:03;20.10;99.90
7654;DHT22;3869;48.406;10.774;2023-09-19T10:50:35;20.00;99.90
7654;DHT22;3869;48.406;10.774;2023-09-19T10:53:06;20.00;99.90
7654;DHT22;3869;48.406;10.774;2023-09-19T10:55:37;19.90;99.90
7654;DHT22;3869;48.406;10.774;2023-09-19T10:58:06;19.90;99.90
7654;DHT22;3869;48.406;10.774;2023-09-19T11:00:51;19.80;99.90
7654;DHT22;3869;48.406;10.774;2023-09-19T11:03:21;19.80;99.90
7654;DHT22;3869;48.406;10.774;2023-09-19T11:06:02;19.70;99.90
7654;DHT22;3869;48.406;10.774;2023-09-19T11:08:55;19.60;99.90
7654;DHT22;3869;48.406;10.774;2023-09-19T11:11:52;19.60;99.90
7654;DHT22;3869;48.406;10.774;2023-09-19T11:17:40;19.50;99.90
7654;DHT22;3869;48.406;10.774;2023-09-19T11:20:19;19.40;99.90
7654;DHT22;3869;48.406;10.774;2023-09-19T11:23:18;19.30;99.90
7654;DHT22;3869;48.406;10.774;2023-09-19T11:25:45;19.30;99.90
7654;DHT22;3869;48.406;10.774;2023-09-19T11:28:36;19.20;99.90
7654;DHT22;3869;48.406;10.774;2023-09-19T11:34:40;19.20;99.90
7654;DHT22;3869;48.406;10.774;2023-09-19T11:40:46;19.40;99.90
7654;DHT22;3869;48.406;10.774;2023-09-19T11:43:29;19.40;99.90
7654;DHT22;3869;48.406;10.774;2023-09-19T11:46:08;19.60;99.90
7654;DHT22;3869;48.406;10.774;2023-09-19T11:48:41;19.60;99.90
7654;DHT22;3869;48.406;10.774;2023-09-19T11:51:16;19.80;99.90
7654;DHT22;3869;48.406;10.774;2023-09-19T11:53:49;19.80;99.90
7654;DHT22;3869;48.406;10.774;2023-09-19T11:56:19;20.00;99.90
7654;DHT22;3869;48.406;10.774;2023-09-19T11:58:50;20.20;99.90
7654;DHT22;3869;48.406;10.774;2023-09-19T12:01:24;20.30;99.90
7654;DHT22;3869;48.406;10.774;2023-09-19T12:03:57;20.40;99.90
7654;DHT22;3869;48.406;10.774;2023-09-19T12:06:26;20.50;99.90
7654;DHT22;3869;48.406;10.774;2023-09-19T12:08:56;20.70;99.90
7654;DHT22;3869;48.406;10.774;2023-09-19T12:11:29;20.80;99.90
7654;DHT22;3869;48.406;10.774;2023-09-19T12:14:01;20.90;99.90
7654;DHT22;3869;48.406;10.774;2023-09-19T12:16:31;20.90;99.90
7654;DHT22;3869;48.406;10.774;2023-09-19T12:19:18;20.90;99.90
7654;DHT22;3869;48.406;10.774;2023-09-19T12:21:55;21.00;99.90
7654;DHT22;3869;48.406;10.774;2023-09-19T12:24:25;21.00;99.90
7654;DHT22;3869;48.406;10.774;2023-09-19T12:27:01;21.10;99.90
7654;DHT22;3869;48.406;10.774;2023-09-19T12:29:31;21.10;99.90
7654;DHT22;3869;48.406;10.774;2023-09-19T12:32:02;21.20;99.90
7654;DHT22;3869;48.406;10.774;2023-09-19T12:34:33;21.30;99.90
7654;DHT22;3869;48.406;10.774;2023-09-19T12:37:07;21.40;99.90
7654;DHT22;3869;48.406;10.774;2023-09-19T12:39:39;21.50;99.90
7654;DHT22;3869;48.406;10.774;2023-09-19T12:42:10;21.70;99.90
7654;DHT22;3869;48.406;10.774;2023-09-19T12:44:42;21.70;99.90
7654;DHT22;3869;48.406;10.774;2023-09-19T12:47:13;21.70;99.90
7654;DHT22;3869;48.406;10.774;2023-09-19T12:50:04;21.70;99.90
7654;DHT22;3869;48.406;10.774;2023-09-19T12:52:35;21.90;99.90
7654;DHT22;3869;48.406;10.774;2023-09-19T12:55:04;21.90;99.90
7654;DHT22;3869;48.406;10.774;2023-09-19T12:57:33;22.00;99.90
7654;DHT22;3869;48.406;10.774;2023-09-19T13:00:02;22.10;99.90
7654;DHT22;3869;48.406;10.774;2023-09-19T13:02:34;22.20;99.90
7654;DHT22;3869;48.406;10.774;2023-09-19T13:05:02;22.30;99.90
7654;DHT22;3869;48.406;10.774;2023-09-19T13:07:40;22.30;99.90
7654;DHT22;3869;48.406;10.774;2023-09-19T13:10:11;22.40;99.90
7654;DHT22;3869;48.406;10.774;2023-09-19T13:12:43;22.50;99.90
7654;DHT22;3869;48.406;10.774;2023-09-19T13:15:15;22.60;99.90
7654;DHT22;3869;48.406;10.774;2023-09-19T13:17:48;22.60;99.90
7654;DHT22;3869;48.406;10.774;2023-09-19T13:20:24;22.60;99.90
7654;DHT22;3869;48.406;10.774;2023-09-19T13:22:54;22.60;99.90
7654;DHT22;3869;48.406;10.774;2023-09-19T13:25:26;22.60;99.90
7654;DHT22;3869;48.406;10.774;2023-09-19T13:27:57;22.60;99.90
7654;DHT22;3869;48.406;10.774;2023-09-19T13:30:27;22.50;99.90
7654;DHT22;3869;48.406;10.774;2023-09-19T13:33:06;22.50;99.90
7654;DHT22;3869;48.406;10.774;2023-09-19T13:35:34;22.50;99.90
7654;DHT22;3869;48.406;10.774;2023-09-19T13:38:03;22.50;99.90
7654;DHT22;3869;48.406;10.774;2023-09-19T13:40:33;22.50;99.90
7654;DHT22;3869;48.406;10.774;2023-09-19T13:43:02;22.40;99.90
7654;DHT22;3869;48.406;10.774;2023-09-19T13:45:30;22.30;99.90
7654;DHT22;3869;48.406;10.774;2023-09-19T13:47:58;22.30;99.90
7654;DHT22;3869;48.406;10.774;2023-09-19T13:50:28;22.20;99.90
7654;DHT22;3869;48.406;10.774;2023-09-19T13:52:56;22.20;99.90
7654;DHT22;3869;48.406;10.774;2023-09-19T13:55:27;22.30;99.90
7654;DHT22;3869;48.406;10.774;2023-09-19T13:57:55;22.30;99.90
7654;DHT22;3869;48.406;10.774;2023-09-19T14:00:24;22.30;99.90
7654;DHT22;3869;48.406;10.774;2023-09-19T14:02:52;22.30;99.90
7654;DHT22;3869;48.406;10.774;2023-09-19T14:05:20;22.30;99.90
7654;DHT22;3869;48.406;10.774;2023-09-19T14:07:50;22.20;99.90
7654;DHT22;3869;48.406;10.774;2023-09-19T14:10:18;22.10;99.90
7654;DHT22;3869;48.406;10.774;2023-09-19T14:12:47;22.00;99.90
7654;DHT22;3869;48.406;10.774;2023-09-19T14:15:15;22.00;99.90
7654;DHT22;3869;48.406;10.774;2023-09-19T14:17:43;21.90;99.90
7654;DHT22;3869;48.406;10.774;2023-09-19T14:20:13;21.80;99.90
7654;DHT22;3869;48.406;10.774;2023-09-19T14:22:42;21.90;99.90
7654;DHT22;3869;48.406;10.774;2023-09-19T14:25:12;21.80;99.90
7654;DHT22;3869;48.406;10.774;2023-09-19T14:27:40;21.70;99.90
7654;DHT22;3869;48.406;10.774;2023-09-19T14:30:09;21.70;99.90
7654;DHT22;3869;48.406;10.774;2023-09-19T14:32:37;21.70;99.90
7654;DHT22;3869;48.406;10.774;2023-09-19T14:35:07;21.70;99.90
7654;DHT22;3869;48.406;10.774;2023-09-19T14:37:36;21.70;99.90
7654;DHT22;3869;48.406;10.774;2023-09-19T14:40:07;21.80;99.90
7654;DHT22;3869;48.406;10.774;2023-09-19T14:42:39;21.80;99.90
7654;DHT22;3869;48.406;10.774;2023-09-19T14:45:08;21.80;99.90
7654;DHT22;3869;48.406;10.774;2023-09-19T14:47:38;21.70;99.90
7654;DHT22;3869;48.406;10.774;2023-09-19T14:50:07;21.70;99.90
7654;DHT22;3869;48.406;10.774;2023-09-19T14:52:35;21.80;99.90
7654;DHT22;3869;48.406;10.774;2023-09-19T14:55:04;21.80;99.90
7654;DHT22;3869;48.406;10.774;2023-09-19T14:57:33;21.80;99.90
7654;DHT22;3869;48.406;10.774;2023-09-19T15:00:03;21.70;99.90
7654;DHT22;3869;48.406;10.774;2023-09-19T15:02:33;21.70;99.90
7654;DHT22;3869;48.406;10.774;2023-09-19T15:05:02;21.70;99.90
7654;DHT22;3869;48.406;10.774;2023-09-19T15:07:30;21.70;99.90
7654;DHT22;3869;48.406;10.774;2023-09-19T15:09:58;21.70;99.90
7654;DHT22;3869;48.406;10.774;2023-09-19T15:12:26;21.70;99.90
7654;DHT22;3869;48.406;10.774;2023-09-19T15:14:56;21.70;99.90
7654;DHT22;3869;48.406;10.774;2023-09-19T15:17:25;21.70;99.90
7654;DHT22;3869;48.406;10.774;2023-09-19T15:19:53;21.70;99.90
7654;DHT22;3869;48.406;10.774;2023-09-19T15:22:22;21.70;99.90
7654;DHT22;3869;48.406;10.774;2023-09-19T15:24:50;21.70;99.90
7654;DHT22;3869;48.406;10.774;2023-09-19T15:27:19;21.70;99.90
7654;DHT22;3869;48.406;10.774;2023-09-19T15:29:47;21.60;99.90
7654;DHT22;3869;48.406;10.774;2023-09-19T15:32:15;21.60;99.90
7654;DHT22;3869;48.406;10.774;2023-09-19T15:34:43;21.60;99.90
7654;DHT22;3869;48.406;10.774;2023-09-19T15:37:11;21.60;99.90
7654;DHT22;3869;48.406;10.774;2023-09-19T15:39:39;21.60;99.90
7654;DHT22;3869;48.406;10.774;2023-09-19T15:42:08;21.70;99.90
7654;DHT22;3869;48.406;10.774;2023-09-19T15:44:36;21.60;99.90
7654;DHT22;3869;48.406;10.774;2023-09-19T15:47:04;21.50;99.90
7654;DHT22;3869;48.406;10.774;2023-09-19T15:49:33;21.50;99.90
7654;DHT22;3869;48.406;10.774;2023-09-19T15:52:03;21.50;99.90
7654;DHT22;3869;48.406;10.774;2023-09-19T15:54:31;21.50;99.90
7654;DHT22;3869;48.406;10.774;2023-09-19T15:57:00;21.40;99.90
7654;DHT22;3869;48.406;10.774;2023-09-19T15:59:28;21.40;99.90
7654;DHT22;3869;48.406;10.774;2023-09-19T16:01:57;21.30;99.90
7654;DHT22;3869;48.406;10.774;2023-09-19T16:04:25;21.30;99.90
7654;DHT22;3869;48.406;10.774;2023-09-19T16:06:53;21.30;99.90
7654;DHT22;3869;48.406;10.774;2023-09-19T16:09:22;21.30;99.90
7654;DHT22;3869;48.406;10.774;2023-09-19T16:11:50;21.20;99.90
7654;DHT22;3869;48.406;10.774;2023-09-19T16:14:18;21.20;99.90
7654;DHT22;3869;48.406;10.774;2023-09-19T16:16:46;21.20;99.90